sensor_id;sensor_type;location;lat;lon;timestamp;temperature;humidity
36654;DHT22;22650;49.350;20.898;2022-09-17T00:02:19;11.90;99.90
36654;DHT22;22650;49.350;20.898;2022-09-17T00:04:53;11.90;99.90
36654;DHT22;22650;49.350;20.898;2022-09-17T00:07:27;11.90;99.90
36654;DHT22;22650;49.350;20.898;2022-09-17T00:10:03;11.90;99.90
36654;DHT22;22650;49.350;20.898;2022-09-17T00:12:37;11.90;99.90
36654;DHT22;22650;49.350;20.898;2022-09-17T00:15:11;11.90;99.90
36654;DHT22;22650;49.350;20.898;2022-09-17T00:17:44;11.90;99.90
36654;DHT22;22650;49.350;20.898;2022-09-17T00:20:18;11.90;99.90
36654;DHT22;22650;49.350;20.898;2022-09-17T00:22:53;11.90;99.90
36654;DHT22;22650;49.350;20.898;2022-09-17T00:25:28;11.90;99.90
36654;DHT22;22650;49.350;20.898;2022-09-17T00:28:02;11.90;99.90
36654;DHT22;22650;49.350;20.898;2022-09-17T00:30:38;11.90;99.90
36654;DHT22;22650;49.350;20.898;2022-09-17T00:33:13;11.90;99.90
36654;DHT22;22650;49.350;20.898;2022-09-17T00:35:57;11.90;99.90
36654;DHT22;22650;49.350;20.898;2022-09-17T00:38:31;11.90;99.90
36654;DHT22;22650;49.350;20.898;2022-09-17T00:41:07;11.90;99.90
36654;DHT22;22650;49.350;20.898;2022-09-17T00:43:44;11.90;99.90
36654;DHT22;22650;49.350;20.898;2022-09-17T00:46:25;11.90;99.90
36654;DHT22;22650;49.350;20.898;2022-09-17T00:49:04;11.90;99.90
36654;DHT22;22650;49.350;20.898;2022-09-17T00:51:40;11.90;99.90
36654;DHT22;22650;49.350;20.898;2022-09-17T00:54:15;11.90;99.90
36654;DHT22;22650;49.350;20.898;2022-09-17T00:56:51;11.90;99.90
36654;DHT22;22650;49.350;20.898;2022-09-17T00:59:25;11.90;99.90
36654;DHT22;22650;49.350;20.898;2022-09-17T01:01:59;11.90;99.90
36654;DHT22;22650;49.350;20.898;2022-09-17T01:04:32;12.00;99.90
36654;DHT22;22650;49.350;20.898;2022-09-17T01:07:10;12.00;99.90
36654;DHT22;22650;49.350;20.898;2022-09-17T01:09:52;12.00;99.90
36654;DHT22;22650;49.350;20.898;2022-09-17T01:12:47;12.00;99.90
36654;DHT22;22650;49.350;20.898;2022-09-17T01:15:29;12.00;99.90
36654;DHT22;22650;49.350;20.898;2022-09-17T01:18:14;12.00;99.90
36654;DHT22;22650;49.350;20.898;2022-09-17T01:24:47;11.90;99.90
36654;DHT22;22650;49.350;20.898;2022-09-17T01:27:51;11.90;99.90
36654;DHT22;22650;49.350;20.898;2022-09-17T01:30:58;11.90;99.90
36654;DHT22;22650;49.350;20.898;2022-09-17T01:33:39;11.90;99.90
36654;DHT22;22650;49.350;20.898;2022-09-17T01:36:21;11.90;99.90
36654;DHT22;22650;49.350;20.898;2022-09-17T01:39:06;11.80;99.90
36654;DHT22;22650;49.350;20.898;2022-09-17T01:41:51;11.80;99.90
36654;DHT22;22650;49.350;20.898;2022-09-17T01:44:30;11.80;99.90
36654;DHT22;22650;49.350;20.898;2022-09-17T01:47:12;11.80;99.90
36654;DHT22;22650;49.350;20.898;2022-09-17T01:49:56;11.80;99.90
36654;DHT22;22650;49.350;20.898;2022-09-17T01:52:34;11.80;99.90
36654;DHT22;22650;49.350;20.898;2022-09-17T01:55:11;11.80;99.90
36654;DHT22;22650;49.350;20.898;2022-09-17T01:57:50;11.80;99.90
36654;DHT22;22650;49.350;20.898;2022-09-17T02:00:27;11.70;99.90
36654;DHT22;22650;49.350;20.898;2022-09-17T02:03:07;11.70;99.90
36654;DHT22;22650;49.350;20.898;2022-09-17T02:05:44;11.70;99.90
36654;DHT22;22650;49.350;20.898;2022-09-17T02:08:21;11.70;99.90
36654;DHT22;22650;49.350;20.898;2022-09-17T02:10:57;11.70;99.90
36654;DHT22;22650;49.350;20.898;2022-09-17T02:13:37;11.70;99.90
36654;DHT22;22650;49.350;20.898;2022-09-17T02:16:14;11.70;99.90
36654;DHT22;22650;49.350;20.898;2022-09-17T02:18:55;11.60;99.90
36654;DHT22;22650;49.350;20.898;2022-09-17T02:21:38;11.60;99.90
36654;DHT22;22650;49.350;20.898;2022-09-17T02:24:18;11.60;99.90
36654;DHT22;22650;49.350;20.898;2022-09-17T02:26:57;11.60;99.90
36654;DHT22;22650;49.350;20.898;2022-09-17T02:29:33;11.60;99.90
36654;DHT22;22650;49.350;20.898;2022-09-17T02:32:07;11.50;99.90
36654;DHT22;22650;49.350;20.898;2022-09-17T02:34:42;11.50;99.90
36654;DHT22;22650;49.350;20.898;2022-09-17T02:37:16;11.50;99.90
36654;DHT22;22650;49.350;20.898;2022-09-17T02:39:49;11.50;99.90
36654;DHT22;22650;49.350;20.898;2022-09-17T02:42:30;11.50;99.90
36654;DHT22;22650;49.350;20.898;2022-09-17T02:45:08;11.50;99.90
36654;DHT22;22650;49.350;20.898;2022-09-17T02:48:01;11.50;99.90
36654;DHT22;22650;49.350;20.898;2022-09-17T02:51:00;11.50;99.90
36654;DHT22;22650;49.350;20.898;2022-09-17T02:53:43;11.50;99.90
36654;DHT22;22650;49.350;20.898;2022-09-17T02:56:26;11.40;99.90
36654;DHT22;22650;49.350;20.898;2022-09-17T02:59:07;11.40;99.90
36654;DHT22;22650;49.350;20.898;2022-09-17T03:01:48;11.40;99.90
36654;DHT22;22650;49.350;20.898;2022-09-17T03:04:24;11.40;99.90
36654;DHT22;22650;49.350;20.898;2022-09-17T03:07:04;11.30;99.90
36654;DHT22;22650;49.350;20.898;2022-09-17T03:09:40;11.30;99.90
36654;DHT22;22650;49.350;20.898;2022-09-17T03:12:14;11.30;99.90
36654;DHT22;22650;49.350;20.898;2022-09-17T03:14:48;11.20;99.90
36654;DHT22;22650;49.350;20.898;2022-09-17T03:17:22;11.20;99.90
36654;DHT22;22650;49.350;20.898;2022-09-17T03:19:55;11.20;99.90
36654;DHT22;22650;49.350;20.898;2022-09-17T03:22:30;11.20;99.90
36654;DHT22;22650;49.350;20.898;2022-09-17T03:25:05;11.10;99.90
36654;DHT22;22650;49.350;20.898;2022-09-17T03:27:38;11.10;99.90
36654;DHT22;22650;49.350;20.898;2022-09-17T03:30:12;11.10;99.90
36654;DHT22;22650;49.350;20.898;2022-09-17T03:32:45;11.00;99.90
36654;DHT22;22650;49.350;20.898;2022-09-17T03:35:19;11.00;99.90
36654;DHT22;22650;49.350;20.898;2022-09-17T03:37:54;11.00;99.90
36654;DHT22;22650;49.350;20.898;2022-09-17T03:40:28;11.00;99.90
36654;DHT22;22650;49.350;20.898;2022-09-17T03:43:02;10.90;99.90
36654;DHT22;22650;49.350;20.898;2022-09-17T03:45:35;11.00;99.90
36654;DHT22;22650;49.350;20.898;2022-09-17T03:48:09;10.90;99.90
36654;DHT22;22650;49.350;20.898;2022-09-17T03:50:43;10.90;99.90
36654;DHT22;22650;49.350;20.898;2022-09-17T03:53:18;10.80;99.90
36654;DHT22;22650;49.350;20.898;2022-09-17T03:55:51;10.80;99.90
36654;DHT22;22650;49.350;20.898;2022-09-17T03:58:25;10.80;99.90
36654;DHT22;22650;49.350;20.898;2022-09-17T04:00:58;10.90;99.90
36654;DHT22;22650;49.350;20.898;2022-09-17T04:03:32;10.80;99.90
36654;DHT22;22650;49.350;20.898;2022-09-17T04:06:06;10.80;99.90
36654;DHT22;22650;49.350;20.898;2022-09-17T04:08:42;10.80;99.90
36654;DHT22;22650;49.350;20.898;2022-09-17T04:11:15;10.80;99.90
36654;DHT22;22650;49.350;20.898;2022-09-17T04:13:49;10.80;99.90
36654;DHT22;22650;49.350;20.898;2022-09-17T04:16:22;10.80;99.90
36654;DHT22;22650;49.350;20.898;2022-09-17T04:18:56;10.80;99.90
36654;DHT22;22650;49.350;20.898;2022-09-17T04:21:30;10.80;99.90
36654;DHT22;22650;49.350;20.898;2022-09-17T04:24:05;10.80;99.90
36654;DHT22;22650;49.350;20.898;2022-09-17T04:26:39;10.80;99.90
36654;DHT22;22650;49.350;20.898;2022-09-17T04:29:12;10.70;99.90
36654;DHT22;22650;49.350;20.898;2022-09-17T04:31:46;10.80;99.90
36654;DHT22;22650;49.350;20.898;2022-09-17T04:34:19;10.70;99.90
36654;DHT22;22650;49.350;20.898;2022-09-17T04:36:53;10.80;99.90
36654;DHT22;22650;49.350;20.898;2022-09-17T04:39:28;10.70;99.90
36654;DHT22;22650;49.350;20.898;2022-09-17T04:42:01;10.70;99.90
36654;DHT22;22650;49.350;20.898;2022-09-17T04:44:35;10.70;99.90
36654;DHT22;22650;49.350;20.898;2022-09-17T04:47:08;10.70;99.90
36654;DHT22;22650;49.350;20.898;2022-09-17T04:49:42;10.70;99.90
36654;DHT22;22650;49.350;20.898;2022-09-17T04:52:16;10.70;99.90
36654;DHT22;22650;49.350;20.898;2022-09-17T04:54:51;10.70;99.90
36654;DHT22;22650;49.350;20.898;2022-09-17T04:57:24;10.60;99.90
36654;DHT22;22650;49.350;20.898;2022-09-17T04:59:58;10.70;99.90
36654;DHT22;22650;49.350;20.898;2022-09-17T05:02:32;10.70;99.90
36654;DHT22;22650;49.350;20.898;2022-09-17T05:05:06;10.70;99.90
36654;DHT22;22650;49.350;20.898;2022-09-17T05:07:40;10.70;99.90
36654;DHT22;22650;49.350;20.898;2022-09-17T05:10:17;10.70;99.90
36654;DHT22;22650;49.350;20.898;2022-09-17T05:12:52;10.70;99.90
36654;DHT22;22650;49.350;20.898;2022-09-17T05:15:26;10.80;99.90
36654;DHT22;22650;49.350;20.898;2022-09-17T05:18:00;10.70;99.90
36654;DHT22;22650;49.350;20.898;2022-09-17T05:20:33;10.70;99.90
36654;DHT22;22650;49.350;20.898;2022-09-17T05:23:07;10.80;99.90
36654;DHT22;22650;49.350;20.898;2022-09-17T05:25:41;10.80;99.90
36654;DHT22;22650;49.350;20.898;2022-09-17T05:28:15;10.80;99.90
36654;DHT22;22650;49.350;20.898;2022-09-17T05:30:48;10.80;99.90
36654;DHT22;22650;49.350;20.898;2022-09-17T05:33:22;10.80;99.90
36654;DHT22;22650;49.350;20.898;2022-09-17T05:35:56;10.80;99.90
36654;DHT22;22650;49.350;20.898;2022-09-17T05:38:29;10.90;99.90
36654;DHT22;22650;49.350;20.898;2022-09-17T05:41:05;10.90;99.90
36654;DHT22;22650;49.350;20.898;2022-09-17T05:43:39;10.90;99.90
36654;DHT22;22650;49.350;20.898;2022-09-17T05:46:12;10.90;99.90
36654;DHT22;22650;49.350;20.898;2022-09-17T05:48:46;10.90;99.90
36654;DHT22;22650;49.350;20.898;2022-09-17T05:51:19;10.90;99.90
36654;DHT22;22650;49.350;20.898;2022-09-17T05:53:53;10.90;99.90
36654;DHT22;22650;49.350;20.898;2022-09-17T05:56:28;11.00;99.90
36654;DHT22;22650;49.350;20.898;2022-09-17T05:59:02;11.00;99.90
36654;DHT22;22650;49.350;20.898;2022-09-17T06:01:35;11.00;99.90
36654;DHT22;22650;49.350;20.898;2022-09-17T06:04:09;11.00;99.90
36654;DHT22;22650;49.350;20.898;2022-09-17T06:06:43;11.10;99.90
36654;DHT22;22650;49.350;20.898;2022-09-17T06:09:16;11.10;99.90
36654;DHT22;22650;49.350;20.898;2022-09-17T06:11:51;11.20;99.90
36654;DHT22;22650;49.350;20.898;2022-09-17T06:14:25;11.20;99.90
36654;DHT22;22650;49.350;20.898;2022-09-17T06:16:59;11.20;99.90
36654;DHT22;22650;49.350;20.898;2022-09-17T06:19:32;11.30;99.90
36654;DHT22;22650;49.350;20.898;2022-09-17T06:22:06;11.30;99.90
36654;DHT22;22650;49.350;20.898;2022-09-17T06:24:39;11.40;99.90
36654;DHT22;22650;49.350;20.898;2022-09-17T06:27:14;11.40;99.90
36654;DHT22;22650;49.350;20.898;2022-09-17T06:29:48;11.40;99.90
36654;DHT22;22650;49.350;20.898;2022-09-17T06:32:21;11.50;99.90
36654;DHT22;22650;49.350;20.898;2022-09-17T06:34:55;11.60;99.90
36654;DHT22;22650;49.350;20.898;2022-09-17T06:37:30;11.70;99.90
36654;DHT22;22650;49.350;20.898;2022-09-17T06:40:04;11.70;99.90
36654;DHT22;22650;49.350;20.898;2022-09-17T06:42:39;11.80;99.90
36654;DHT22;22650;49.350;20.898;2022-09-17T06:45:13;11.80;99.90
36654;DHT22;22650;49.350;20.898;2022-09-17T06:47:48;11.90;99.90
36654;DHT22;22650;49.350;20.898;2022-09-17T06:50:21;12.00;99.90
36654;DHT22;22650;49.350;20.898;2022-09-17T06:52:56;12.10;99.90
36654;DHT22;22650;49.350;20.898;2022-09-17T06:55:29;12.10;99.90
36654;DHT22;22650;49.350;20.898;2022-09-17T06:58:04;12.20;99.90
36654;DHT22;22650;49.350;20.898;2022-09-17T07:00:38;12.30;99.90
36654;DHT22;22650;49.350;20.898;2022-09-17T07:03:11;12.30;99.90
36654;DHT22;22650;49.350;20.898;2022-09-17T07:05:45;12.50;99.90
36654;DHT22;22650;49.350;20.898;2022-09-17T07:08:18;12.60;99.90
36654;DHT22;22650;49.350;20.898;2022-09-17T07:10:54;12.70;99.90
36654;DHT22;22650;49.350;20.898;2022-09-17T07:13:29;12.80;99.90
36654;DHT22;22650;49.350;20.898;2022-09-17T07:16:04;12.90;99.90
36654;DHT22;22650;49.350;20.898;2022-09-17T07:18:38;13.10;99.90
36654;DHT22;22650;49.350;20.898;2022-09-17T07:21:12;13.30;99.90
36654;DHT22;22650;49.350;20.898;2022-09-17T07:23:45;13.50;99.90
36654;DHT22;22650;49.350;20.898;2022-09-17T07:26:19;13.80;99.90
36654;DHT22;22650;49.350;20.898;2022-09-17T07:28:54;14.00;99.90
36654;DHT22;22650;49.350;20.898;2022-09-17T07:31:27;14.20;99.90
36654;DHT22;22650;49.350;20.898;2022-09-17T07:34:01;14.20;99.90
36654;DHT22;22650;49.350;20.898;2022-09-17T07:36:34;14.30;99.90
36654;DHT22;22650;49.350;20.898;2022-09-17T07:39:08;14.40;99.90
36654;DHT22;22650;49.350;20.898;2022-09-17T07:41:42;14.50;99.90
36654;DHT22;22650;49.350;20.898;2022-09-17T07:44:17;14.50;99.90
36654;DHT22;22650;49.350;20.898;2022-09-17T07:46:51;14.50;99.90
36654;DHT22;22650;49.350;20.898;2022-09-17T07:49:24;14.60;99.90
36654;DHT22;22650;49.350;20.898;2022-09-17T07:51:59;14.70;99.90
36654;DHT22;22650;49.350;20.898;2022-09-17T07:54:37;14.80;99.90
36654;DHT22;22650;49.350;20.898;2022-09-17T07:57:10;14.80;99.90
36654;DHT22;22650;49.350;20.898;2022-09-17T07:59:45;14.90;99.90
36654;DHT22;22650;49.350;20.898;2022-09-17T08:02:19;15.00;99.90
36654;DHT22;22650;49.350;20.898;2022-09-17T08:04:55;15.10;99.90
36654;DHT22;22650;49.350;20.898;2022-09-17T08:07:29;15.10;99.90
36654;DHT22;22650;49.350;20.898;2022-09-17T08:10:02;15.10;99.90
36654;DHT22;22650;49.350;20.898;2022-09-17T08:12:36;15.20;99.90
36654;DHT22;22650;49.350;20.898;2022-09-17T08:15:11;15.30;99.90
36654;DHT22;22650;49.350;20.898;2022-09-17T08:17:45;15.40;99.90
36654;DHT22;22650;49.350;20.898;2022-09-17T08:20:19;15.50;99.90
36654;DHT22;22650;49.350;20.898;2022-09-17T08:22:59;15.50;99.90
36654;DHT22;22650;49.350;20.898;2022-09-17T08:25:33;15.60;99.90
36654;DHT22;22650;49.350;20.898;2022-09-17T08:28:06;15.60;99.90
36654;DHT22;22650;49.350;20.898;2022-09-17T08:30:41;15.80;99.90
36654;DHT22;22650;49.350;20.898;2022-09-17T08:33:14;15.80;99.90
36654;DHT22;22650;49.350;20.898;2022-09-17T08:35:51;15.80;99.90
36654;DHT22;22650;49.350;20.898;2022-09-17T08:38:25;15.80;99.90
36654;DHT22;22650;49.350;20.898;2022-09-17T08:41:08;15.90;99.90
36654;DHT22;22650;49.350;20.898;2022-09-17T08:43:50;15.90;99.90
36654;DHT22;22650;49.350;20.898;2022-09-17T08:46:27;16.00;99.90
36654;DHT22;22650;49.350;20.898;2022-09-17T08:49:11;16.10;99.90
36654;DHT22;22650;49.350;20.898;2022-09-17T08:51:52;16.10;99.90
36654;DHT22;22650;49.350;20.898;2022-09-17T08:54:35;16.20;99.90
36654;DHT22;22650;49.350;20.898;2022-09-17T08:57:17;16.20;99.90
36654;DHT22;22650;49.350;20.898;2022-09-17T08:59:57;16.20;99.90
36654;DHT22;22650;49.350;20.898;2022-09-17T09:02:42;16.30;99.90
36654;DHT22;22650;49.350;20.898;2022-09-17T09:05:20;16.40;99.90
36654;DHT22;22650;49.350;20.898;2022-09-17T09:08:00;16.40;99.90
36654;DHT22;22650;49.350;20.898;2022-09-17T09:10:43;16.50;99.90
36654;DHT22;22650;49.350;20.898;2022-09-17T09:13:20;16.60;99.90
36654;DHT22;22650;49.350;20.898;2022-09-17T09:15:58;16.70;99.90
36654;DHT22;22650;49.350;20.898;2022-09-17T09:18:35;16.80;99.90
36654;DHT22;22650;49.350;20.898;2022-09-17T09:21:20;16.80;99.90
36654;DHT22;22650;49.350;20.898;2022-09-17T09:23:58;16.90;99.90
36654;DHT22;22650;49.350;20.898;2022-09-17T09:26:39;17.00;99.90
36654;DHT22;22650;49.350;20.898;2022-09-17T09:29:22;17.20;99.90
36654;DHT22;22650;49.350;20.898;2022-09-17T09:32:12;17.30;99.90
36654;DHT22;22650;49.350;20.898;2022-09-17T09:34:49;17.30;99.90
36654;DHT22;22650;49.350;20.898;2022-09-17T09:37:26;17.20;99.90
36654;DHT22;22650;49.350;20.898;2022-09-17T09:40:06;17.30;99.90
36654;DHT22;22650;49.350;20.898;2022-09-17T09:42:50;17.30;99.90
36654;DHT22;22650;49.350;20.898;2022-09-17T09:45:36;17.30;99.90
36654;DHT22;22650;49.350;20.898;2022-09-17T09:48:15;17.40;99.90
36654;DHT22;22650;49.350;20.898;2022-09-17T09:51:02;17.50;99.90
36654;DHT22;22650;49.350;20.898;2022-09-17T09:53:49;17.50;99.90
36654;DHT22;22650;49.350;20.898;2022-09-17T09:56:34;17.60;99.90
36654;DHT22;22650;49.350;20.898;2022-09-17T09:59:11;17.60;99.90
36654;DHT22;22650;49.350;20.898;2022-09-17T10:01:45;17.70;99.90
36654;DHT22;22650;49.350;20.898;2022-09-17T10:04:21;17.90;99.90
36654;DHT22;22650;49.350;20.898;2022-09-17T10:07:00;18.10;98.80
36654;DHT22;22650;49.350;20.898;2022-09-17T10:09:36;18.10;97.80
36654;DHT22;22650;49.350;20.898;2022-09-17T10:12:16;18.20;97.20
36654;DHT22;22650;49.350;20.898;2022-09-17T10:14:50;18.20;95.40
36654;DHT22;22650;49.350;20.898;2022-09-17T10:17:25;18.20;96.10
36654;DHT22;22650;49.350;20.898;2022-09-17T10:20:13;18.30;95.80
36654;DHT22;22650;49.350;20.898;2022-09-17T10:22:55;18.20;94.20
36654;DHT22;22650;49.350;20.898;2022-09-17T10:25:30;18.20;93.70
36654;DHT22;22650;49.350;20.898;2022-09-17T10:28:11;18.10;93.90
36654;DHT22;22650;49.350;20.898;2022-09-17T10:30:57;18.10;93.70
36654;DHT22;22650;49.350;20.898;2022-09-17T10:33:34;18.00;93.60
36654;DHT22;22650;49.350;20.898;2022-09-17T10:36:11;18.00;95.40
36654;DHT22;22650;49.350;20.898;2022-09-17T10:38:47;18.00;92.10
36654;DHT22;22650;49.350;20.898;2022-09-17T10:41:21;17.90;93.20
36654;DHT22;22650;49.350;20.898;2022-09-17T10:43:55;17.80;92.80
36654;DHT22;22650;49.350;20.898;2022-09-17T10:46:48;17.70;93.40
36654;DHT22;22650;49.350;20.898;2022-09-17T10:49:34;17.70;93.00
36654;DHT22;22650;49.350;20.898;2022-09-17T10:52:12;17.60;92.40
36654;DHT22;22650;49.350;20.898;2022-09-17T10:55:19;17.60;93.70
36654;DHT22;22650;49.350;20.898;2022-09-17T10:58:03;17.60;95.10
36654;DHT22;22650;49.350;20.898;2022-09-17T11:00:53;17.60;95.70
36654;DHT22;22650;49.350;20.898;2022-09-17T11:03:56;17.60;94.70
36654;DHT22;22650;49.350;20.898;2022-09-17T11:06:57;17.60;95.40
36654;DHT22;22650;49.350;20.898;2022-09-17T11:09:41;17.60;96.30
36654;DHT22;22650;49.350;20.898;2022-09-17T11:12:36;17.60;96.10
36654;DHT22;22650;49.350;20.898;2022-09-17T11:15:25;17.60;96.90
36654;DHT22;22650;49.350;20.898;2022-09-17T11:18:16;17.70;94.00
36654;DHT22;22650;49.350;20.898;2022-09-17T11:21:02;17.70;94.50
36654;DHT22;22650;49.350;20.898;2022-09-17T11:24:02;17.60;93.60
36654;DHT22;22650;49.350;20.898;2022-09-17T11:26:44;17.60;93.50
36654;DHT22;22650;49.350;20.898;2022-09-17T11:29:47;17.60;95.30
36654;DHT22;22650;49.350;20.898;2022-09-17T11:32:39;17.60;94.60
36654;DHT22;22650;49.350;20.898;2022-09-17T11:35:20;17.50;90.40
36654;DHT22;22650;49.350;20.898;2022-09-17T11:37:57;17.50;93.60
36654;DHT22;22650;49.350;20.898;2022-09-17T11:40:38;17.40;93.70
36654;DHT22;22650;49.350;20.898;2022-09-17T11:43:19;17.40;93.40
36654;DHT22;22650;49.350;20.898;2022-09-17T11:46:04;17.40;91.50
36654;DHT22;22650;49.350;20.898;2022-09-17T11:48:43;17.30;92.00
36654;DHT22;22650;49.350;20.898;2022-09-17T11:51:24;17.30;91.60
36654;DHT22;22650;49.350;20.898;2022-09-17T11:54:02;17.30;90.90
36654;DHT22;22650;49.350;20.898;2022-09-17T11:56:42;17.30;91.70
36654;DHT22;22650;49.350;20.898;2022-09-17T11:59:21;17.30;91.20
36654;DHT22;22650;49.350;20.898;2022-09-17T12:02:01;17.40;91.20
36654;DHT22;22650;49.350;20.898;2022-09-17T12:04:42;17.40;92.70
36654;DHT22;22650;49.350;20.898;2022-09-17T12:07:27;17.50;93.20
36654;DHT22;22650;49.350;20.898;2022-09-17T12:10:16;17.50;93.80
36654;DHT22;22650;49.350;20.898;2022-09-17T12:12:55;17.60;93.50
36654;DHT22;22650;49.350;20.898;2022-09-17T12:15:33;17.50;91.90
36654;DHT22;22650;49.350;20.898;2022-09-17T12:18:19;17.50;92.10
36654;DHT22;22650;49.350;20.898;2022-09-17T12:21:07;17.50;91.20
36654;DHT22;22650;49.350;20.898;2022-09-17T12:23:44;17.50;94.20
36654;DHT22;22650;49.350;20.898;2022-09-17T12:26:52;17.50;94.70
36654;DHT22;22650;49.350;20.898;2022-09-17T12:29:53;17.50;93.70
36654;DHT22;22650;49.350;20.898;2022-09-17T12:35:53;17.40;94.80
36654;DHT22;22650;49.350;20.898;2022-09-17T12:38:55;17.50;97.10
36654;DHT22;22650;49.350;20.898;2022-09-17T12:41:45;17.50;92.40
36654;DHT22;22650;49.350;20.898;2022-09-17T12:44:39;17.50;94.90
36654;DHT22;22650;49.350;20.898;2022-09-17T12:47:44;17.50;92.40
36654;DHT22;22650;49.350;20.898;2022-09-17T12:50:30;17.40;93.30
36654;DHT22;22650;49.350;20.898;2022-09-17T12:53:20;17.50;94.10
36654;DHT22;22650;49.350;20.898;2022-09-17T12:56:10;17.50;95.10
36654;DHT22;22650;49.350;20.898;2022-09-17T12:59:04;17.40;96.50
36654;DHT22;22650;49.350;20.898;2022-09-17T13:01:46;17.40;95.50
36654;DHT22;22650;49.350;20.898;2022-09-17T13:04:51;17.40;96.00
36654;DHT22;22650;49.350;20.898;2022-09-17T13:07:52;17.30;96.10
36654;DHT22;22650;49.350;20.898;2022-09-17T13:13:47;17.20;97.70
36654;DHT22;22650;49.350;20.898;2022-09-17T13:16:22;17.20;98.80
36654;DHT22;22650;49.350;20.898;2022-09-17T13:19:02;17.20;99.50
36654;DHT22;22650;49.350;20.898;2022-09-17T13:21:51;17.20;99.90
36654;DHT22;22650;49.350;20.898;2022-09-17T13:24:28;17.20;99.40
36654;DHT22;22650;49.350;20.898;2022-09-17T13:27:03;17.30;98.60
36654;DHT22;22650;49.350;20.898;2022-09-17T13:29:57;17.20;98.40
36654;DHT22;22650;49.350;20.898;2022-09-17T13:32:48;17.30;99.20
36654;DHT22;22650;49.350;20.898;2022-09-17T13:35:50;17.30;99.30
36654;DHT22;22650;49.350;20.898;2022-09-17T13:38:24;17.30;99.90
36654;DHT22;22650;49.350;20.898;2022-09-17T13:41:16;17.30;99.60
36654;DHT22;22650;49.350;20.898;2022-09-17T13:43:51;17.30;99.90
36654;DHT22;22650;49.350;20.898;2022-09-17T13:46:28;17.40;99.90
36654;DHT22;22650;49.350;20.898;2022-09-17T13:49:10;17.30;99.50
36654;DHT22;22650;49.350;20.898;2022-09-17T13:51:49;17.30;99.50
36654;DHT22;22650;49.350;20.898;2022-09-17T13:54:35;17.40;98.30
36654;DHT22;22650;49.350;20.898;2022-09-17T13:57:13;17.30;98.50
36654;DHT22;22650;49.350;20.898;2022-09-17T13:59:55;17.30;98.20
36654;DHT22;22650;49.350;20.898;2022-09-17T14:02:34;17.30;99.00
36654;DHT22;22650;49.350;20.898;2022-09-17T14:05:35;17.20;97.80
36654;DHT22;22650;49.350;20.898;2022-09-17T14:08:22;17.20;98.30
36654;DHT22;22650;49.350;20.898;2022-09-17T14:11:01;17.20;98.60
36654;DHT22;22650;49.350;20.898;2022-09-17T14:13:52;17.10;98.70
36654;DHT22;22650;49.350;20.898;2022-09-17T14:16:34;17.00;98.70
36654;DHT22;22650;49.350;20.898;2022-09-17T14:19:28;16.90;98.80
36654;DHT22;22650;49.350;20.898;2022-09-17T14:22:15;16.90;99.40
36654;DHT22;22650;49.350;20.898;2022-09-17T14:24:51;16.80;99.70
36654;DHT22;22650;49.350;20.898;2022-09-17T14:27:34;16.70;99.90
36654;DHT22;22650;49.350;20.898;2022-09-17T14:30:17;16.60;99.90
36654;DHT22;22650;49.350;20.898;2022-09-17T14:32:57;16.50;99.90
36654;DHT22;22650;49.350;20.898;2022-09-17T14:35:36;16.40;99.90
36654;DHT22;22650;49.350;20.898;2022-09-17T14:38:14;16.30;99.90
36654;DHT22;22650;49.350;20.898;2022-09-17T14:40:55;16.30;99.90
36654;DHT22;22650;49.350;20.898;2022-09-17T14:43:36;16.10;99.90
36654;DHT22;22650;49.350;20.898;2022-09-17T14:46:17;16.00;99.90
36654;DHT22;22650;49.350;20.898;2022-09-17T14:48:51;16.00;99.90
36654;DHT22;22650;49.350;20.898;2022-09-17T14:51:27;15.90;99.90
36654;DHT22;22650;49.350;20.898;2022-09-17T14:54:19;15.90;99.90
36654;DHT22;22650;49.350;20.898;2022-09-17T14:57:00;15.80;99.90
36654;DHT22;22650;49.350;20.898;2022-09-17T14:59:47;15.70;99.90
36654;DHT22;22650;49.350;20.898;2022-09-17T15:02:32;15.60;99.90
36654;DHT22;22650;49.350;20.898;2022-09-17T15:05:17;15.60;99.90
36654;DHT22;22650;49.350;20.898;2022-09-17T15:08:04;15.50;99.90
36654;DHT22;22650;49.350;20.898;2022-09-17T15:10:45;15.40;99.90
36654;DHT22;22650;49.350;20.898;2022-09-17T15:13:23;15.30;99.90
36654;DHT22;22650;49.350;20.898;2022-09-17T15:16:00;15.30;99.90
36654;DHT22;22650;49.350;20.898;2022-09-17T15:18:40;15.20;99.90
36654;DHT22;22650;49.350;20.898;2022-09-17T15:21:20;15.20;99.90
36654;DHT22;22650;49.350;20.898;2022-09-17T15:24:06;15.10;99.90
36654;DHT22;22650;49.350;20.898;2022-09-17T15:26:47;15.10;99.90
36654;DHT22;22650;49.350;20.898;2022-09-17T15:29:25;15.10;99.90
36654;DHT22;22650;49.350;20.898;2022-09-17T15:32:02;15.10;99.90
36654;DHT22;22650;49.350;20.898;2022-09-17T15:34:36;15.00;99.90
36654;DHT22;22650;49.350;20.898;2022-09-17T15:37:17;15.00;99.90
36654;DHT22;22650;49.350;20.898;2022-09-17T15:39:52;15.00;99.90
36654;DHT22;22650;49.350;20.898;2022-09-17T15:42:31;14.90;99.90
36654;DHT22;22650;49.350;20.898;2022-09-17T15:45:14;14.90;99.90
36654;DHT22;22650;49.350;20.898;2022-09-17T15:47:52;14.90;99.90
36654;DHT22;22650;49.350;20.898;2022-09-17T15:50:27;14.90;99.90
36654;DHT22;22650;49.350;20.898;2022-09-17T15:53:12;14.80;99.90
36654;DHT22;22650;49.350;20.898;2022-09-17T15:55:58;14.80;99.90
36654;DHT22;22650;49.350;20.898;2022-09-17T15:58:36;14.80;99.90
36654;DHT22;22650;49.350;20.898;2022-09-17T16:04:31;14.70;99.90
36654;DHT22;22650;49.350;20.898;2022-09-17T16:07:28;14.60;99.90
36654;DHT22;22650;49.350;20.898;2022-09-17T16:10:02;14.60;99.90
36654;DHT22;22650;49.350;20.898;2022-09-17T16:12:37;14.60;99.90
36654;DHT22;22650;49.350;20.898;2022-09-17T16:15:12;14.50;99.90
36654;DHT22;22650;49.350;20.898;2022-09-17T16:17:46;14.50;99.90
36654;DHT22;22650;49.350;20.898;2022-09-17T16:20:21;14.40;99.90
36654;DHT22;22650;49.350;20.898;2022-09-17T16:22:55;14.40;99.90
36654;DHT22;22650;49.350;20.898;2022-09-17T16:25:29;14.30;99.90
36654;DHT22;22650;49.350;20.898;2022-09-17T16:28:08;14.30;99.90
36654;DHT22;22650;49.350;20.898;2022-09-17T16:30:44;14.30;99.90
36654;DHT22;22650;49.350;20.898;2022-09-17T16:33:18;14.20;99.90
36654;DHT22;22650;49.350;20.898;2022-09-17T16:35:55;14.10;99.90
36654;DHT22;22650;49.350;20.898;2022-09-17T16:38:29;14.00;99.90
36654;DHT22;22650;49.350;20.898;2022-09-17T16:41:04;14.00;99.90
36654;DHT22;22650;49.350;20.898;2022-09-17T16:43:39;13.90;99.90